createdAt,value
2018-06-29T00:00:10.327Z,63.02
2018-06-29T00:05:53.505Z,63.09
2018-06-29T00:08:38.682Z,63.52
2018-06-29T00:11:21.901Z,64.06
2018-06-29T00:14:11.679Z,64.21
2018-06-29T00:16:59.543Z,63.46
2018-06-29T00:19:45.440Z,62.97
2018-06-29T00:22:32.231Z,63.75
2018-06-29T00:25:21.594Z,63.35
2018-06-29T00:28:05.210Z,63.79
2018-06-29T00:30:52.607Z,63.56
2018-06-29T00:33:38.468Z,64.46
2018-06-29T00:36:18.776Z,64.59
2018-06-29T00:39:04.622Z,64.57
2018-06-29T00:41:54.089Z,64.95
2018-06-29T00:44:41.365Z,65.02
2018-06-29T00:47:31.224Z,65.08
2018-06-29T00:50:09.663Z,65.05
2018-06-29T00:52:57.472Z,65.32
2018-06-29T00:55:41.922Z,65.09
2018-06-29T00:58:28.802Z,65.51
2018-06-29T01:01:11.830Z,65.25
2018-06-29T01:04:01.527Z,65.29
2018-06-29T01:06:47.406Z,66.36
2018-06-29T01:09:37.951Z,65.47
2018-06-29T01:12:22.538Z,65.98
2018-06-29T01:15:12.240Z,66.56
2018-06-29T01:17:57.583Z,66.62
2018-06-29T01:20:48.928Z,66.28
2018-06-29T01:23:35.068Z,66.89
2018-06-29T01:26:27.292Z,67.12
2018-06-29T01:29:17.060Z,66.63
2018-06-29T01:32:05.806Z,66.73
2018-06-29T01:34:51.854Z,67.30
2018-06-29T01:37:34.832Z,66.88
2018-06-29T01:40:31.113Z,67.57
2018-06-29T01:43:21.064Z,67.17
2018-06-29T01:46:09.816Z,67.51
2018-06-29T01:49:00.766Z,67.81
2018-06-29T01:51:49.530Z,68.25
2018-06-29T01:54:40.026Z,68.37
2018-06-29T01:57:27.309Z,68.48
2018-06-29T02:00:15.436Z,68.68
2018-06-29T02:03:06.015Z,68.47
2018-06-29T02:05:54.093Z,68.92
2018-06-29T02:08:41.103Z,68.65
2018-06-29T02:11:32.675Z,69.20
2018-06-29T02:14:22.090Z,69.07
2018-06-29T02:17:13.151Z,69.01
2018-06-29T02:20:01.159Z,69.22
2018-06-29T02:22:50.207Z,69.08
2018-06-29T02:25:38.848Z,69.84
2018-06-29T02:28:25.138Z,70.27
2018-06-29T02:31:14.882Z,71.01
2018-06-29T02:33:56.203Z,70.28
2018-06-29T02:36:35.771Z,70.97
2018-06-29T02:39:25.566Z,70.80
2018-06-29T02:42:10.693Z,70.85
2018-06-29T02:44:56.534Z,71.36
2018-06-29T02:47:42.819Z,71.86
2018-06-29T02:50:26.998Z,71.79
2018-06-29T02:53:16.779Z,71.91
2018-06-29T02:56:06.041Z,71.62
2018-06-29T03:01:43.094Z,71.58
2018-06-29T03:04:31.117Z,72.75
2018-06-29T03:07:19.213Z,72.50
2018-06-29T03:13:00.566Z,72.64
2018-06-29T03:15:53.087Z,72.75
2018-06-29T03:18:45.422Z,73.33
2018-06-29T03:21:33.187Z,73.03
2018-06-29T03:24:21.116Z,73.03
2018-06-29T03:27:13.053Z,73.07
2018-06-29T03:30:02.259Z,73.10
2018-06-29T03:32:52.440Z,72.59
2018-06-29T03:35:37.965Z,72.40
2018-06-29T03:38:32.575Z,72.66
2018-06-29T03:41:22.321Z,72.44
2018-06-29T03:44:11.103Z,72.08
2018-06-29T03:47:01.650Z,72.50
2018-06-29T03:49:50.300Z,73.13
2018-06-29T03:52:42.668Z,73.25
2018-06-29T03:58:20.098Z,73.24
2018-06-29T04:01:02.697Z,73.16
2018-06-29T04:03:47.305Z,73.72
2018-06-29T04:06:35.758Z,73.78
2018-06-29T04:09:26.206Z,74.40
2018-06-29T04:12:12.256Z,73.88
2018-06-29T04:15:01.114Z,73.93
2018-06-29T04:17:49.600Z,73.68
2018-06-29T04:20:38.364Z,73.78
2018-06-29T04:23:30.256Z,74.15
2018-06-29T04:26:22.644Z,73.54
2018-06-29T04:29:14.715Z,74.03
2018-06-29T04:32:02.998Z,74.31
2018-06-29T04:34:54.370Z,75.03
2018-06-29T04:37:50.298Z,75.02
2018-06-29T04:40:38.739Z,75.47
2018-06-29T04:43:22.189Z,75.86
2018-06-29T04:46:05.625Z,75.45
2018-06-29T04:48:51.987Z,75.39
2018-06-29T04:51:41.995Z,75.04
2018-06-29T04:54:29.873Z,74.77
2018-06-29T04:57:13.888Z,75.01
2018-06-29T05:00:00.384Z,74.10
2018-06-29T05:05:45.789Z,74.61
2018-06-29T05:08:28.828Z,74.32
2018-06-29T05:11:17.247Z,74.81
2018-06-29T05:17:03.479Z,74.85
2018-06-29T05:22:49.515Z,75.00
2018-06-29T05:25:43.273Z,75.25
2018-06-29T05:28:31.148Z,75.16
2018-06-29T05:31:19.765Z,74.76
2018-06-29T05:34:07.719Z,75.02
2018-06-29T05:36:57.463Z,74.73
2018-06-29T05:39:49.546Z,74.59
2018-06-29T05:42:30.547Z,74.04
2018-06-29T05:45:16.457Z,74.39
2018-06-29T05:48:05.971Z,74.54
2018-06-29T05:50:54.917Z,74.19
2018-06-29T05:53:36.543Z,74.37
2018-06-29T05:56:23.824Z,74.14
2018-06-29T05:59:06.302Z,74.10
2018-06-29T06:01:47.198Z,73.58
2018-06-29T06:04:31.779Z,73.35
2018-06-29T06:07:02.091Z,74.05
2018-06-29T06:09:49.051Z,73.85
2018-06-29T06:12:39.944Z,73.65
2018-06-29T06:15:28.008Z,72.88
2018-06-29T06:18:15.095Z,72.09
2018-06-29T06:21:05.984Z,71.99
2018-06-29T06:23:56.677Z,71.40
2018-06-29T06:26:51.054Z,71.19
2018-06-29T06:29:39.556Z,70.83
2018-06-29T06:32:28.112Z,69.85
2018-06-29T06:35:18.805Z,69.86
2018-06-29T06:38:04.269Z,69.12
2018-06-29T06:40:52.902Z,67.50
2018-06-29T06:43:40.154Z,61.77
2018-06-29T06:46:27.699Z,52.98
2018-06-29T06:49:11.983Z,50.99
2018-06-29T06:52:02.177Z,50.75
2018-06-29T06:54:55.001Z,48.78
2018-06-29T06:57:41.122Z,48.04
2018-06-29T07:00:23.039Z,42.08
2018-06-29T07:03:07.377Z,39.84
2018-06-29T07:06:00.852Z,40.35
2018-06-29T07:08:48.557Z,36.17
2018-06-29T07:11:39.004Z,31.86
2018-06-29T07:14:25.698Z,35.40
2018-06-29T07:17:02.946Z,35.97
2018-06-29T07:19:39.979Z,35.26
2018-06-29T07:22:14.842Z,36.73
2018-06-29T07:24:55.517Z,33.85
2018-06-29T07:27:39.018Z,31.62
2018-06-29T07:30:14.828Z,34.24
2018-06-29T07:32:59.066Z,30.38
2018-06-29T07:35:42.204Z,29.88
2018-06-29T07:38:20.194Z,32.21
2018-06-29T07:40:59.777Z,33.49
2018-06-29T07:43:45.044Z,33.29
2018-06-29T07:46:29.862Z,30.22
2018-06-29T07:49:08.469Z,29.50
2018-06-29T07:51:44.975Z,28.32
2018-06-29T07:54:30.168Z,29.28
2018-06-29T07:57:11.119Z,26.54
2018-06-29T07:59:48.089Z,29.07
2018-06-29T08:02:21.515Z,26.04
2018-06-29T08:04:53.052Z,28.11
2018-06-29T08:07:27.844Z,29.64
2018-06-29T08:09:58.691Z,28.50
2018-06-29T08:12:30.001Z,25.00
2018-06-29T08:15:03.961Z,21.85
2018-06-29T08:17:42.517Z,23.65
2018-06-29T08:20:17.645Z,25.67
2018-06-29T08:22:57.866Z,28.23
2018-06-29T08:25:38.469Z,36.78
2018-06-29T08:28:16.223Z,41.17
2018-06-29T08:30:50.389Z,42.03
2018-06-29T08:33:24.485Z,43.86
2018-06-29T08:35:59.325Z,44.38
2018-06-29T08:38:39.426Z,44.69
2018-06-29T08:41:12.451Z,44.97
2018-06-29T08:43:50.788Z,45.44
2018-06-29T08:46:27.682Z,44.78
2018-06-29T08:49:02.766Z,45.07
2018-06-29T08:51:45.840Z,45.16
2018-06-29T08:54:23.650Z,46.44
2018-06-29T08:57:02.856Z,46.93
2018-06-29T08:59:43.117Z,47.40
2018-06-29T09:02:19.395Z,46.52
2018-06-29T09:04:55.539Z,46.75
2018-06-29T09:07:40.877Z,47.84
2018-06-29T09:10:19.435Z,47.81
2018-06-29T09:12:58.545Z,48.09
2018-06-29T09:15:37.722Z,47.36
2018-06-29T09:18:10.358Z,48.53
2018-06-29T09:20:47.947Z,47.74
2018-06-29T09:23:26.536Z,48.12
2018-06-29T09:26:07.716Z,47.16
2018-06-29T09:28:45.635Z,48.00
2018-06-29T09:31:22.273Z,49.20
2018-06-29T09:34:01.940Z,49.02
2018-06-29T09:36:44.238Z,48.88
2018-06-29T09:39:19.996Z,48.85
2018-06-29T09:42:03.799Z,48.78
2018-06-29T09:44:45.285Z,49.29
2018-06-29T09:47:19.904Z,48.31
2018-06-29T09:50:07.255Z,48.89
2018-06-29T09:52:44.721Z,48.30
2018-06-29T09:55:26.859Z,47.66
2018-06-29T09:58:08.849Z,47.73
2018-06-29T10:00:55.408Z,47.16
2018-06-29T10:03:34.607Z,47.37
2018-06-29T10:06:16.312Z,46.60
2018-06-29T10:11:39.058Z,46.14
2018-06-29T10:14:21.313Z,46.49
2018-06-29T10:17:01.299Z,45.86
2018-06-29T10:19:38.836Z,45.31
2018-06-29T10:22:21.219Z,45.42
2018-06-29T10:25:03.252Z,45.75
2018-06-29T10:27:41.685Z,45.16
2018-06-29T10:30:26.827Z,45.26
2018-06-29T10:33:09.810Z,45.12
2018-06-29T10:35:50.821Z,43.71
2018-06-29T10:38:35.555Z,43.40
2018-06-29T10:41:19.969Z,42.38
2018-06-29T10:44:02.734Z,42.97
2018-06-29T10:46:44.203Z,42.91
2018-06-29T10:49:29.596Z,42.23
2018-06-29T10:52:13.255Z,42.35
2018-06-29T10:54:48.754Z,38.21
2018-06-29T10:57:32.854Z,36.48
2018-06-29T11:00:12.342Z,37.93
2018-06-29T11:02:59.561Z,37.08
2018-06-29T11:05:40.260Z,36.93
2018-06-29T11:08:29.043Z,36.91
2018-06-29T11:11:13.624Z,36.19
2018-06-29T11:14:01.041Z,36.03
2018-06-29T11:16:43.708Z,33.10
2018-06-29T11:19:25.621Z,33.44
2018-06-29T11:22:02.305Z,34.40
2018-06-29T11:24:41.595Z,32.60
2018-06-29T11:27:26.625Z,32.32
2018-06-29T11:30:09.662Z,33.06
2018-06-29T11:32:53.492Z,33.04
2018-06-29T11:35:37.745Z,35.13
2018-06-29T11:38:25.839Z,35.94
2018-06-29T11:41:04.647Z,34.85
2018-06-29T11:43:46.879Z,34.33
2018-06-29T11:46:30.217Z,35.85
2018-06-29T11:49:11.791Z,32.68
2018-06-29T11:54:59.625Z,36.31
2018-06-29T11:57:40.687Z,36.78
2018-06-29T12:00:18.240Z,37.36
2018-06-29T12:03:06.291Z,38.14
2018-06-29T12:05:44.659Z,37.03
2018-06-29T12:08:26.928Z,36.38
2018-06-29T12:11:11.079Z,36.91
2018-06-29T12:13:55.339Z,41.42
2018-06-29T12:16:38.193Z,45.26
2018-06-29T12:19:22.459Z,45.48
2018-06-29T12:22:07.180Z,45.22
2018-06-29T12:24:44.753Z,44.73
2018-06-29T12:27:28.361Z,45.18
2018-06-29T12:30:09.668Z,44.32
2018-06-29T12:33:00.517Z,43.78
2018-06-29T12:35:38.132Z,43.74
2018-06-29T12:38:19.016Z,44.08
2018-06-29T12:40:59.858Z,44.95
2018-06-29T12:43:41.802Z,44.70
2018-06-29T12:46:18.492Z,44.23
2018-06-29T12:49:01.119Z,44.81
2018-06-29T12:51:42.688Z,43.82
2018-06-29T12:57:24.026Z,43.78
2018-06-29T13:00:05.838Z,44.94
2018-06-29T13:02:51.126Z,45.24
2018-06-29T13:05:36.406Z,44.70
2018-06-29T13:08:19.427Z,44.78
2018-06-29T13:10:56.495Z,44.93
2018-06-29T13:13:42.480Z,44.72
2018-06-29T13:19:20.763Z,44.69
2018-06-29T13:22:01.499Z,44.65
2018-06-29T13:24:40.412Z,43.88
2018-06-29T13:27:17.660Z,43.38
2018-06-29T13:30:01.277Z,43.46
2018-06-29T13:32:48.447Z,43.30
2018-06-29T13:35:33.550Z,43.77
2018-06-29T13:38:16.069Z,44.18
2018-06-29T13:40:59.019Z,44.15
2018-06-29T13:43:41.920Z,44.37
2018-06-29T13:46:21.117Z,44.31
2018-06-29T13:49:09.755Z,43.94
2018-06-29T13:51:57.685Z,43.15
2018-06-29T13:54:40.728Z,43.01
2018-06-29T13:57:33.331Z,42.73
2018-06-29T14:00:16.632Z,42.77
2018-06-29T14:02:54.474Z,42.51
2018-06-29T14:05:38.658Z,41.70
2018-06-29T14:08:25.911Z,41.32
2018-06-29T14:11:09.375Z,41.02
2018-06-29T14:13:59.546Z,40.99
2018-06-29T14:16:46.760Z,41.01
2018-06-29T14:19:26.618Z,41.68
2018-06-29T14:22:03.809Z,41.51
2018-06-29T14:24:41.234Z,42.78
2018-06-29T14:27:25.174Z,42.72
2018-06-29T14:30:07.399Z,43.92
2018-06-29T14:32:55.280Z,44.08
2018-06-29T14:35:41.232Z,44.43
2018-06-29T14:38:25.168Z,44.18
2018-06-29T14:41:10.371Z,45.38
2018-06-29T14:43:56.017Z,45.39
2018-06-29T14:46:39.554Z,46.88
2018-06-29T14:49:23.079Z,47.21
2018-06-29T14:52:05.072Z,47.08
2018-06-29T14:54:46.187Z,47.70
2018-06-29T14:57:35.291Z,47.75
2018-06-29T15:00:19.003Z,47.96
2018-06-29T15:03:07.767Z,48.04
2018-06-29T15:05:50.417Z,48.01
2018-06-29T15:11:19.963Z,48.36
2018-06-29T15:14:02.263Z,48.36
2018-06-29T15:16:41.087Z,48.88
2018-06-29T15:19:23.831Z,49.54
2018-06-29T15:22:02.101Z,49.68
2018-06-29T15:24:42.889Z,50.97
2018-06-29T15:27:21.708Z,51.55
2018-06-29T15:30:05.199Z,51.60
2018-06-29T15:32:50.451Z,51.74
2018-06-29T15:35:25.720Z,51.26
2018-06-29T15:37:59.511Z,50.93
2018-06-29T15:40:42.158Z,51.43
2018-06-29T15:43:27.699Z,51.69
2018-06-29T15:46:08.481Z,51.37
2018-06-29T15:48:51.827Z,51.41
2018-06-29T15:51:38.269Z,51.70
2018-06-29T15:54:16.373Z,51.42
2018-06-29T15:57:04.773Z,51.12
2018-06-29T15:59:44.124Z,51.46
2018-06-29T16:02:24.227Z,50.71
2018-06-29T16:04:55.785Z,50.52
2018-06-29T16:07:27.543Z,50.80
2018-06-29T16:10:03.118Z,51.41
2018-06-29T16:12:39.596Z,51.02
2018-06-29T16:15:12.728Z,50.27
2018-06-29T16:17:44.944Z,50.48
2018-06-29T16:23:19.684Z,50.31
2018-06-29T16:26:01.124Z,49.96
2018-06-29T16:28:44.453Z,50.31
2018-06-29T16:31:27.422Z,50.05
2018-06-29T16:34:09.696Z,50.28
2018-06-29T16:46:08.331Z,51.73
2018-06-29T16:48:52.374Z,51.85
2018-06-29T16:51:39.830Z,51.62
2018-06-29T16:54:29.368Z,51.84
2018-06-29T16:57:17.899Z,51.66
2018-06-29T17:00:02.555Z,51.74
2018-06-29T17:05:45.025Z,52.87
2018-06-29T17:08:28.960Z,52.96
2018-06-29T17:11:12.279Z,52.99
2018-06-29T17:13:59.600Z,53.58
2018-06-29T17:16:47.998Z,53.38
2018-06-29T17:19:33.336Z,53.80
2018-06-29T17:22:19.029Z,53.31
2018-06-29T17:25:01.046Z,53.45
2018-06-29T17:27:42.120Z,54.33
2018-06-29T17:33:13.033Z,54.96
2018-06-29T17:38:47.108Z,55.04
2018-06-29T17:41:35.018Z,54.70
2018-06-29T17:44:23.817Z,54.66
2018-06-29T17:47:08.068Z,54.81
2018-06-29T17:49:53.014Z,54.69
2018-06-29T17:52:36.790Z,55.57
2018-06-29T17:55:22.878Z,55.59
2018-06-29T17:58:06.276Z,55.79
2018-06-29T18:00:50.190Z,56.21
2018-06-29T18:03:38.424Z,56.21
2018-06-29T18:06:21.127Z,55.88
2018-06-29T18:11:56.893Z,56.89
2018-06-29T18:14:40.778Z,57.44
2018-06-29T18:17:24.136Z,57.26
2018-06-29T18:20:10.350Z,58.15
2018-06-29T18:22:58.002Z,58.06
2018-06-29T18:25:42.713Z,58.98
2018-06-29T18:28:25.434Z,60.21
2018-06-29T18:31:17.184Z,60.23
2018-06-29T18:34:10.454Z,60.80
2018-06-29T18:36:58.378Z,61.08
2018-06-29T18:39:42.966Z,61.46
2018-06-29T18:42:28.845Z,61.47
2018-06-29T18:45:11.874Z,61.18
2018-06-29T18:47:58.088Z,62.01
2018-06-29T18:50:49.828Z,62.29
2018-06-29T18:53:36.301Z,62.25
2018-06-29T18:56:26.038Z,62.09
2018-06-29T18:59:11.123Z,61.98
2018-06-29T19:01:57.572Z,63.61
2018-06-29T19:04:47.799Z,64.51
2018-06-29T19:07:33.228Z,64.42
2018-06-29T19:10:16.509Z,63.73
2018-06-29T19:12:58.514Z,63.93
2018-06-29T19:15:44.362Z,64.21
2018-06-29T19:18:32.273Z,64.63
2018-06-29T19:21:17.672Z,64.52
2018-06-29T19:24:03.288Z,64.98
2018-06-29T19:26:55.758Z,64.90
2018-06-29T19:29:32.608Z,65.57
2018-06-29T19:32:10.753Z,65.59
2018-06-29T19:34:57.735Z,66.73
2018-06-29T19:37:44.450Z,66.80
2018-06-29T19:40:32.423Z,66.76
2018-06-29T19:43:17.713Z,67.44
2018-06-29T19:46:01.370Z,67.57
2018-06-29T19:48:51.288Z,67.65
2018-06-29T19:51:35.842Z,68.00
2018-06-29T19:54:24.532Z,68.11
2018-06-29T19:57:10.967Z,68.42
2018-06-29T19:59:53.743Z,69.13
2018-06-29T20:02:41.997Z,68.90
2018-06-29T20:05:26.393Z,69.01
2018-06-29T20:08:15.239Z,68.93
2018-06-29T20:10:56.492Z,68.72
2018-06-29T20:13:43.971Z,69.55
2018-06-29T20:16:29.954Z,69.31
2018-06-29T20:19:17.043Z,69.69
2018-06-29T20:21:59.917Z,70.13
2018-06-29T20:24:40.494Z,70.83
2018-06-29T20:30:15.848Z,70.31
2018-06-29T20:32:55.164Z,70.13
2018-06-29T20:35:32.129Z,70.19
2018-06-29T20:38:13.011Z,70.95
2018-06-29T20:40:54.976Z,70.83
2018-06-29T20:43:28.911Z,71.49
2018-06-29T20:46:03.596Z,71.87
2018-06-29T20:51:38.887Z,72.01
2018-06-29T20:54:18.677Z,72.62
2018-06-29T20:57:05.329Z,72.23
2018-06-29T20:59:37.422Z,72.28
2018-06-29T21:02:11.191Z,72.54
2018-06-29T21:04:53.672Z,72.56
2018-06-29T21:07:40.432Z,72.49
2018-06-29T21:10:31.636Z,72.89
2018-06-29T21:13:20.013Z,73.03
2018-06-29T21:16:01.933Z,73.60
2018-06-29T21:18:55.262Z,74.15
2018-06-29T21:21:43.265Z,73.68
2018-06-29T21:24:34.608Z,73.94
2018-06-29T21:27:22.510Z,74.71
2018-06-29T21:30:06.180Z,75.05
2018-06-29T21:32:55.312Z,74.74
2018-06-29T21:35:40.014Z,74.84
2018-06-29T21:38:27.256Z,74.53
2018-06-29T21:41:10.271Z,74.17
2018-06-29T21:43:58.735Z,74.42
2018-06-29T21:46:45.051Z,74.68
2018-06-29T21:49:27.853Z,75.23
2018-06-29T21:52:16.133Z,75.09
2018-06-29T21:55:01.338Z,75.36
2018-06-29T21:57:45.540Z,75.16
2018-06-29T22:00:32.616Z,75.18
2018-06-29T22:03:22.195Z,75.49
2018-06-29T22:06:09.200Z,76.01
2018-06-29T22:08:52.227Z,76.28
2018-06-29T22:11:39.417Z,76.11
2018-06-29T22:14:24.114Z,76.23
2018-06-29T22:17:07.259Z,76.51
2018-06-29T22:19:53.648Z,76.76
2018-06-29T22:22:37.144Z,76.68
2018-06-29T22:25:22.659Z,76.46
2018-06-29T22:28:11.399Z,76.28
2018-06-29T22:30:58.134Z,76.55
2018-06-29T22:33:46.926Z,76.87
2018-06-29T22:36:32.567Z,76.19
2018-06-29T22:39:20.355Z,76.59
2018-06-29T22:42:09.660Z,76.51
2018-06-29T22:44:54.107Z,76.48
2018-06-29T22:47:41.544Z,76.89
2018-06-29T22:50:28.434Z,76.56
2018-06-29T22:53:12.131Z,76.87
2018-06-29T22:55:55.565Z,77.27
2018-06-29T22:58:38.822Z,77.08
2018-06-29T23:01:22.235Z,76.75
2018-06-29T23:04:08.219Z,76.73
2018-06-29T23:06:46.147Z,77.22
2018-06-29T23:09:27.598Z,77.29
2018-06-29T23:15:14.075Z,77.84
2018-06-29T23:18:00.627Z,77.70
2018-06-29T23:20:48.368Z,77.25
2018-06-29T23:23:36.021Z,77.19
2018-06-29T23:26:19.279Z,77.47
2018-06-29T23:29:05.055Z,77.16
2018-06-29T23:31:50.224Z,77.39
2018-06-29T23:34:30.628Z,77.73
2018-06-29T23:37:21.999Z,77.29
2018-06-29T23:40:10.713Z,77.17
2018-06-29T23:42:50.442Z,77.49
2018-06-29T23:45:37.257Z,77.63
2018-06-29T23:48:22.896Z,77.62
2018-06-29T23:51:09.755Z,77.43
2018-06-29T23:56:51.111Z,77.92
2018-06-29T23:59:30.283Z,77.82
